createdAt,value
2023-03-25T00:01:25.677Z,18.30
2023-03-25T00:03:54.384Z,17.73
2023-03-25T00:06:22.725Z,10.43
2023-03-25T00:08:52.775Z,18.23
2023-03-25T00:11:21.358Z,15.98
2023-03-25T00:13:49.884Z,20.33
2023-03-25T00:16:19.143Z,15.82
2023-03-25T00:18:48.202Z,18.80
2023-03-25T00:21:18.948Z,13.48
2023-03-25T00:23:47.555Z,12.10
2023-03-25T00:26:17.919Z,16.50
2023-03-25T00:28:46.327Z,13.70
2023-03-25T00:31:16.295Z,25.13
2023-03-25T00:33:44.675Z,17.67
2023-03-25T00:36:15.086Z,17.20
2023-03-25T00:38:43.952Z,21.65
2023-03-25T00:41:23.363Z,12.10
2023-03-25T00:43:54.764Z,16.30
2023-03-25T00:46:24.002Z,11.40
2023-03-25T00:48:52.692Z,16.15
2023-03-25T00:51:21.748Z,22.15
2023-03-25T00:53:54.114Z,12.23
2023-03-25T00:56:25.536Z,14.13
2023-03-25T00:58:54.301Z,12.75
2023-03-25T01:01:27.351Z,20.50
2023-03-25T01:04:00.473Z,15.15
2023-03-25T01:06:33.560Z,15.27
2023-03-25T01:09:04.784Z,20.45
2023-03-25T01:11:38.843Z,18.80
2023-03-25T01:14:12.497Z,13.98
2023-03-25T01:16:41.181Z,24.15
2023-03-25T01:19:10.059Z,15.55
2023-03-25T01:21:38.456Z,16.13
2023-03-25T01:24:09.782Z,13.05
2023-03-25T01:26:41.330Z,18.85
2023-03-25T01:29:09.833Z,13.65
2023-03-25T01:31:38.251Z,21.80
2023-03-25T01:34:07.603Z,12.82
2023-03-25T01:36:37.577Z,17.05
2023-03-25T01:39:06.667Z,23.20
2023-03-25T01:41:48.979Z,19.25
2023-03-25T01:45:16.428Z,16.65
2023-03-25T01:47:45.676Z,17.90
2023-03-25T01:50:15.271Z,22.33
2023-03-25T01:52:47.261Z,21.63
2023-03-25T01:55:18.112Z,18.00
2023-03-25T01:57:49.449Z,16.02
2023-03-25T02:00:19.360Z,16.80
2023-03-25T02:02:48.347Z,17.73
2023-03-25T02:05:21.577Z,13.40
2023-03-25T02:07:51.118Z,12.88
2023-03-25T02:10:21.000Z,15.43
2023-03-25T02:12:50.995Z,12.20
2023-03-25T02:15:20.933Z,17.85
2023-03-25T02:18:09.862Z,10.48
2023-03-25T02:21:24.823Z,9.77
2023-03-25T02:24:54.383Z,17.73
2023-03-25T02:27:41.966Z,11.00
2023-03-25T02:30:54.252Z,13.40
2023-03-25T02:34:11.232Z,17.40
2023-03-25T02:37:12.663Z,19.10
2023-03-25T02:39:48.556Z,18.63
2023-03-25T02:42:23.673Z,20.35
2023-03-25T02:44:59.825Z,17.67
2023-03-25T02:47:35.481Z,17.80
2023-03-25T02:50:09.274Z,24.20
2023-03-25T02:52:42.563Z,16.17
2023-03-25T02:55:16.794Z,13.75
2023-03-25T02:57:49.247Z,18.75
2023-03-25T03:00:24.081Z,16.25
2023-03-25T03:03:00.546Z,21.35
2023-03-25T03:05:32.898Z,18.33
2023-03-25T03:08:40.132Z,16.50
2023-03-25T03:11:16.360Z,18.35
2023-03-25T03:14:24.847Z,26.58
2023-03-25T03:17:04.884Z,19.35
2023-03-25T03:19:39.546Z,21.67
2023-03-25T03:22:38.762Z,18.77
2023-03-25T03:25:20.119Z,18.60
2023-03-25T03:27:54.587Z,21.75
2023-03-25T03:30:30.013Z,21.05
2023-03-25T03:33:09.746Z,20.38
2023-03-25T03:35:43.392Z,23.10
2023-03-25T03:38:16.426Z,25.15
2023-03-25T03:40:50.398Z,22.73
2023-03-25T03:43:28.411Z,19.83
2023-03-25T03:46:00.876Z,22.27
2023-03-25T03:48:38.325Z,22.48
2023-03-25T03:51:14.964Z,17.77
2023-03-25T03:53:48.743Z,23.05
2023-03-25T03:56:22.795Z,26.08
2023-03-25T03:58:58.551Z,26.13
2023-03-25T04:01:35.004Z,20.13
2023-03-25T04:04:07.658Z,19.67
2023-03-25T04:06:41.889Z,20.88
2023-03-25T04:09:18.807Z,18.55
2023-03-25T04:11:53.490Z,18.42
2023-03-25T04:14:23.839Z,24.77
2023-03-25T04:16:53.220Z,19.40
2023-03-25T04:19:21.578Z,18.77
2023-03-25T04:21:49.990Z,8.75
2023-03-25T04:24:19.771Z,8.40
2023-03-25T04:26:50.047Z,10.50
2023-03-25T04:29:19.265Z,16.90
2023-03-25T04:31:50.064Z,22.95
2023-03-25T04:34:20.611Z,18.40
2023-03-25T04:36:50.315Z,25.90
2023-03-25T04:39:22.966Z,29.05
2023-03-25T04:41:53.746Z,27.02
2023-03-25T04:44:25.833Z,33.00
2023-03-25T04:46:56.140Z,28.73
2023-03-25T04:49:25.978Z,24.55
2023-03-25T04:51:56.910Z,29.73
2023-03-25T04:54:25.999Z,28.50
2023-03-25T04:56:54.555Z,28.77
2023-03-25T04:59:23.204Z,23.85
2023-03-25T05:01:52.833Z,24.63
2023-03-25T05:04:24.687Z,25.00
2023-03-25T05:06:53.181Z,26.20
2023-03-25T05:09:23.133Z,25.90
2023-03-25T05:11:53.579Z,28.65
2023-03-25T05:14:23.167Z,24.63
2023-03-25T05:16:52.010Z,25.40
2023-03-25T05:19:22.011Z,26.13
2023-03-25T05:21:50.705Z,25.88
2023-03-25T05:24:19.401Z,19.40
2023-03-25T05:26:47.942Z,22.92
2023-03-25T05:29:16.919Z,24.65
2023-03-25T05:31:46.932Z,15.63
2023-03-25T05:34:17.574Z,23.08
2023-03-25T05:36:47.917Z,19.77
2023-03-25T05:39:16.378Z,21.63
2023-03-25T05:41:45.918Z,18.15
2023-03-25T05:44:15.369Z,16.58
2023-03-25T05:46:44.225Z,17.73
2023-03-25T05:49:12.618Z,22.20
2023-03-25T05:51:42.085Z,22.38
2023-03-25T05:54:12.983Z,25.38
2023-03-25T05:56:42.756Z,19.33
2023-03-25T05:59:11.415Z,22.70
2023-03-25T06:01:41.942Z,22.80
2023-03-25T06:04:12.967Z,23.38
2023-03-25T06:06:42.310Z,26.50
2023-03-25T06:09:12.086Z,22.70
2023-03-25T06:11:40.717Z,24.17
2023-03-25T06:14:09.332Z,24.55
2023-03-25T06:16:38.111Z,21.15
2023-03-25T06:19:09.433Z,27.40
2023-03-25T06:21:38.433Z,22.48
2023-03-25T06:24:07.903Z,10.60
2023-03-25T06:26:38.773Z,21.73
2023-03-25T06:29:08.582Z,16.50
2023-03-25T06:31:37.151Z,17.73
2023-03-25T06:34:05.568Z,25.08
2023-03-25T06:36:34.833Z,14.13
2023-03-25T06:39:05.211Z,15.57
2023-03-25T06:41:35.877Z,28.92
2023-03-25T06:44:06.500Z,24.85
2023-03-25T06:46:35.092Z,19.00
2023-03-25T06:49:03.526Z,28.50
2023-03-25T06:51:34.963Z,18.42
2023-03-25T06:54:03.484Z,16.75
2023-03-25T06:56:31.868Z,29.05
2023-03-25T06:59:00.370Z,20.95
2023-03-25T07:01:30.367Z,26.40
2023-03-25T07:03:58.675Z,23.67
2023-03-25T07:06:26.968Z,16.60
2023-03-25T07:08:55.364Z,25.90
2023-03-25T07:11:30.481Z,16.83
2023-03-25T07:13:58.957Z,29.15
2023-03-25T07:16:29.134Z,26.27
2023-03-25T07:18:59.039Z,18.80
2023-03-25T07:21:28.040Z,26.90
2023-03-25T07:23:56.365Z,21.55
2023-03-25T07:26:24.666Z,32.58
2023-03-25T07:28:53.464Z,21.13
2023-03-25T07:31:22.029Z,26.25
2023-03-25T07:33:52.510Z,35.42
2023-03-25T07:36:22.008Z,28.38
2023-03-25T07:38:50.565Z,25.73
2023-03-25T07:41:18.936Z,27.17
2023-03-25T07:43:47.226Z,24.67
2023-03-25T07:46:15.738Z,39.53
2023-03-25T07:48:44.000Z,21.83
2023-03-25T07:51:13.939Z,23.27
2023-03-25T07:53:44.748Z,30.30
2023-03-25T07:56:14.293Z,37.50
2023-03-25T07:58:44.493Z,27.35
2023-03-25T08:01:13.205Z,31.27
2023-03-25T08:03:41.821Z,22.33
2023-03-25T08:06:10.809Z,28.80
2023-03-25T08:08:41.020Z,27.35
2023-03-25T08:11:09.529Z,30.90
2023-03-25T08:13:37.845Z,29.10
2023-03-25T08:16:13.778Z,32.88
2023-03-25T08:18:44.944Z,22.63
2023-03-25T08:21:13.943Z,27.70
2023-03-25T08:23:44.639Z,28.23
2023-03-25T08:26:13.100Z,39.58
2023-03-25T08:28:41.605Z,31.17
2023-03-25T08:31:10.019Z,28.95
2023-03-25T08:33:41.198Z,34.05
2023-03-25T08:36:14.042Z,36.40
2023-03-25T08:38:44.065Z,25.35
2023-03-25T08:41:12.459Z,35.88
2023-03-25T08:43:41.085Z,25.08
2023-03-25T08:46:09.667Z,33.72
2023-03-25T08:48:38.379Z,38.22
2023-03-25T08:51:07.684Z,29.98
2023-03-25T08:53:36.010Z,36.67
2023-03-25T08:56:07.261Z,27.55
2023-03-25T08:58:35.577Z,25.90
2023-03-25T09:01:03.945Z,30.83
2023-03-25T09:03:32.368Z,38.33
2023-03-25T09:06:05.763Z,32.53
2023-03-25T09:08:34.145Z,32.75
2023-03-25T09:11:02.470Z,28.90
2023-03-25T09:13:32.779Z,33.05
2023-03-25T09:16:01.308Z,36.08
2023-03-25T09:18:31.966Z,39.47
2023-03-25T09:21:01.116Z,36.25
2023-03-25T09:23:30.074Z,32.92
2023-03-25T09:26:03.817Z,39.20
2023-03-25T09:28:33.803Z,30.02
2023-03-25T09:31:02.471Z,34.75
2023-03-25T09:33:31.034Z,31.00
2023-03-25T09:35:59.502Z,35.95
2023-03-25T09:38:27.913Z,28.38
2023-03-25T09:40:56.470Z,32.15
2023-03-25T09:43:51.632Z,32.38
2023-03-25T09:46:20.078Z,26.50
2023-03-25T09:48:49.899Z,29.73
2023-03-25T09:51:26.447Z,31.20
2023-03-25T09:54:01.795Z,29.65
2023-03-25T09:56:32.958Z,23.10
2023-03-25T09:59:07.563Z,29.98
2023-03-25T10:01:42.619Z,33.30
2023-03-25T10:04:42.207Z,30.08
2023-03-25T10:07:25.265Z,30.40
2023-03-25T10:10:04.018Z,30.50
2023-03-25T10:12:39.201Z,31.42
2023-03-25T10:15:23.333Z,28.17
2023-03-25T10:18:05.957Z,25.73
2023-03-25T10:20:47.894Z,29.42
2023-03-25T10:23:23.750Z,34.15
2023-03-25T10:25:58.525Z,28.60
2023-03-25T10:28:34.250Z,27.38
2023-03-25T10:31:05.695Z,36.20
2023-03-25T10:33:38.401Z,31.77
2023-03-25T10:36:16.609Z,29.63
2023-03-25T10:38:45.483Z,26.92
2023-03-25T10:41:21.554Z,28.95
2023-03-25T10:43:51.596Z,23.95
2023-03-25T10:46:30.104Z,25.00
2023-03-25T10:48:58.728Z,23.52
2023-03-25T10:51:30.813Z,32.88
2023-03-25T10:53:59.981Z,20.83
2023-03-25T10:56:32.863Z,21.05
2023-03-25T10:59:08.738Z,27.98
2023-03-25T11:01:41.393Z,21.58
2023-03-25T11:04:13.864Z,27.35
2023-03-25T11:06:46.926Z,26.30
2023-03-25T11:09:19.353Z,27.42
2023-03-25T11:11:48.858Z,32.25
2023-03-25T11:14:17.875Z,29.98
2023-03-25T11:16:50.986Z,22.58
2023-03-25T11:19:26.722Z,26.48
2023-03-25T11:21:59.014Z,23.13
2023-03-25T11:24:34.431Z,28.73
2023-03-25T11:27:04.170Z,27.33
2023-03-25T11:29:35.138Z,18.95
2023-03-25T11:32:15.147Z,22.83
2023-03-25T11:34:48.529Z,25.05
2023-03-25T11:37:19.229Z,26.25
2023-03-25T11:39:55.227Z,16.75
2023-03-25T11:42:33.366Z,36.67
2023-03-25T11:45:03.898Z,19.23
2023-03-25T11:47:37.030Z,22.75
2023-03-25T11:50:08.148Z,21.92
2023-03-25T11:52:43.023Z,31.67
2023-03-25T11:55:21.253Z,19.10
2023-03-25T11:57:52.639Z,24.63
2023-03-25T12:00:39.873Z,18.17
2023-03-25T12:03:22.905Z,26.40
2023-03-25T12:06:07.198Z,22.45
2023-03-25T12:08:45.120Z,19.17
2023-03-25T12:11:19.225Z,24.90
2023-03-25T12:14:14.487Z,21.38
2023-03-25T12:16:52.319Z,29.75
2023-03-25T12:19:31.459Z,24.02
2023-03-25T12:22:15.637Z,22.42
2023-03-25T12:25:12.214Z,22.35
2023-03-25T12:27:57.741Z,17.73
2023-03-25T12:30:44.545Z,29.27
2023-03-25T12:33:31.343Z,16.05
2023-03-25T12:36:23.071Z,17.60
2023-03-25T12:39:05.924Z,17.23
2023-03-25T12:41:43.686Z,18.60
2023-03-25T12:44:28.271Z,19.15
2023-03-25T12:47:16.259Z,23.08
2023-03-25T12:50:01.209Z,14.88
2023-03-25T12:52:43.107Z,17.67
2023-03-25T12:55:37.419Z,21.63
2023-03-25T12:58:48.306Z,20.77
2023-03-25T13:01:26.098Z,17.63
2023-03-25T13:04:12.049Z,20.92
2023-03-25T13:06:47.225Z,16.67
2023-03-25T13:09:23.815Z,16.13
2023-03-25T13:11:56.165Z,24.52
2023-03-25T13:14:30.104Z,16.27
2023-03-25T13:17:05.536Z,22.67
2023-03-25T13:19:36.679Z,16.83
2023-03-25T13:22:10.733Z,19.15
2023-03-25T13:24:49.688Z,19.60
2023-03-25T13:27:18.728Z,14.10
2023-03-25T13:29:51.912Z,12.60
2023-03-25T13:32:26.556Z,20.00
2023-03-25T13:34:59.478Z,22.20
2023-03-25T13:37:34.602Z,22.55
2023-03-25T13:40:24.432Z,28.92
2023-03-25T13:42:59.608Z,23.90
2023-03-25T13:45:33.569Z,20.60
2023-03-25T13:48:11.642Z,23.67
2023-03-25T13:50:40.422Z,16.77
2023-03-25T13:53:14.964Z,17.42
2023-03-25T13:55:49.710Z,18.85
2023-03-25T13:58:49.234Z,19.02
2023-03-25T14:01:46.832Z,19.92
2023-03-25T14:04:49.746Z,14.73
2023-03-25T14:07:47.257Z,16.85
2023-03-25T14:10:41.406Z,22.25
2023-03-25T14:13:15.798Z,25.08
2023-03-25T14:15:54.729Z,20.77
2023-03-25T14:18:23.252Z,20.02
2023-03-25T14:20:52.414Z,17.05
2023-03-25T14:23:25.437Z,17.00
2023-03-25T14:25:58.419Z,19.90
2023-03-25T14:28:38.914Z,22.75
2023-03-25T14:31:25.757Z,19.50
2023-03-25T14:34:39.357Z,12.60
2023-03-25T14:37:34.149Z,21.85
2023-03-25T14:41:01.487Z,26.35
2023-03-25T14:43:40.193Z,19.10
2023-03-25T14:46:19.499Z,16.90
2023-03-25T14:48:52.728Z,27.80
2023-03-25T14:51:46.916Z,20.15
2023-03-25T14:54:33.732Z,21.92
2023-03-25T14:57:08.769Z,23.58
2023-03-25T14:59:44.228Z,21.67
2023-03-25T15:02:18.845Z,24.10
2023-03-25T15:04:54.018Z,22.00
2023-03-25T15:07:44.285Z,26.63
2023-03-25T15:10:26.566Z,28.80
2023-03-25T15:13:03.146Z,24.25
2023-03-25T15:15:55.131Z,15.80
2023-03-25T15:19:15.278Z,26.13
2023-03-25T15:22:23.608Z,27.02
2023-03-25T15:25:04.393Z,20.15
2023-03-25T15:27:58.312Z,20.88
2023-03-25T15:30:55.844Z,24.60
2023-03-25T15:33:42.070Z,21.60
2023-03-25T15:36:31.131Z,23.50
2023-03-25T15:39:22.614Z,20.42
2023-03-25T15:42:23.538Z,26.33
2023-03-25T15:45:36.652Z,22.83
2023-03-25T15:48:46.709Z,21.25
2023-03-25T15:51:41.232Z,30.27
2023-03-25T15:54:35.463Z,26.63
2023-03-25T15:57:14.454Z,21.35
2023-03-25T15:59:47.161Z,23.70
2023-03-25T16:02:27.802Z,27.00
2023-03-25T16:04:57.868Z,26.20
2023-03-25T16:07:30.931Z,16.08
2023-03-25T16:10:16.722Z,22.25
2023-03-25T16:12:47.432Z,29.52
2023-03-25T16:15:18.123Z,27.33
2023-03-25T16:17:47.912Z,28.17
2023-03-25T16:20:22.337Z,26.17
2023-03-25T16:22:54.335Z,26.63
2023-03-25T16:25:28.237Z,25.40
2023-03-25T16:27:59.145Z,33.58
2023-03-25T16:30:31.211Z,29.02
2023-03-25T16:33:17.947Z,35.28
2023-03-25T16:35:51.896Z,33.72
2023-03-25T16:38:22.768Z,36.47
2023-03-25T16:40:51.882Z,31.52
2023-03-25T16:43:27.419Z,30.40
2023-03-25T16:46:00.141Z,26.67
2023-03-25T16:48:31.836Z,29.17
2023-03-25T16:51:08.042Z,35.30
2023-03-25T16:53:39.945Z,22.23
2023-03-25T16:56:25.077Z,34.50
2023-03-25T16:59:01.826Z,26.58
2023-03-25T17:01:38.266Z,25.17
2023-03-25T17:04:18.761Z,28.08
2023-03-25T17:06:52.940Z,30.83
2023-03-25T17:09:25.819Z,27.60
2023-03-25T17:11:58.118Z,28.65
2023-03-25T17:14:33.554Z,19.63
2023-03-25T17:17:18.199Z,30.92
2023-03-25T17:19:49.791Z,31.00
2023-03-25T17:22:28.208Z,28.05
2023-03-25T17:24:59.785Z,30.58
2023-03-25T17:27:35.493Z,29.48
2023-03-25T17:30:20.403Z,30.20
2023-03-25T17:32:51.148Z,34.10
2023-03-25T17:35:23.410Z,31.35
2023-03-25T17:37:53.650Z,35.20
2023-03-25T17:40:25.534Z,32.95
2023-03-25T17:42:54.614Z,32.33
2023-03-25T17:45:24.839Z,37.75
2023-03-25T17:47:53.678Z,33.05
2023-03-25T17:50:25.689Z,33.00
2023-03-25T17:52:57.500Z,29.50
2023-03-25T17:55:25.926Z,33.97
2023-03-25T17:57:54.759Z,38.10
2023-03-25T18:00:23.067Z,29.27
2023-03-25T18:02:51.539Z,33.58
2023-03-25T18:05:20.170Z,36.63
2023-03-25T18:07:48.534Z,36.85
2023-03-25T18:10:22.078Z,37.15
2023-03-25T18:12:50.565Z,30.00
2023-03-25T18:15:19.047Z,30.95
2023-03-25T18:17:47.362Z,34.25
2023-03-25T18:20:18.676Z,37.92
2023-03-25T18:22:47.525Z,33.65
2023-03-25T18:25:17.461Z,39.95
2023-03-25T18:27:52.801Z,31.83
2023-03-25T18:30:26.645Z,32.00
2023-03-25T18:32:55.131Z,26.05
2023-03-25T18:35:24.237Z,27.55
2023-03-25T18:37:52.690Z,27.58
2023-03-25T18:40:27.279Z,25.55
2023-03-25T18:42:56.874Z,35.40
2023-03-25T18:45:27.776Z,33.97
2023-03-25T18:47:56.997Z,32.08
2023-03-25T18:50:30.376Z,24.35
2023-03-25T18:52:59.667Z,21.85
2023-03-25T18:55:31.454Z,21.30
2023-03-25T18:58:00.165Z,18.35
2023-03-25T19:00:33.464Z,21.25
2023-03-25T19:03:02.053Z,21.55
2023-03-25T19:05:30.706Z,17.70
2023-03-25T19:07:59.393Z,15.02
2023-03-25T19:10:32.407Z,9.50
2023-03-25T19:13:01.973Z,11.18
2023-03-25T19:15:32.448Z,12.07
2023-03-25T19:18:01.997Z,18.33
2023-03-25T19:20:36.127Z,22.02
2023-03-25T19:23:05.674Z,17.20
2023-03-25T19:25:35.332Z,18.42
2023-03-25T19:28:03.741Z,18.92
2023-03-25T19:30:32.118Z,25.27
2023-03-25T19:33:01.973Z,33.40
2023-03-25T19:35:32.575Z,23.80
2023-03-25T19:38:03.420Z,29.83
2023-03-25T19:40:35.988Z,31.35
2023-03-25T19:43:06.361Z,29.00
2023-03-25T19:45:35.683Z,28.00
2023-03-25T19:48:04.498Z,29.20
2023-03-25T19:50:34.609Z,34.45
2023-03-25T19:53:06.263Z,30.48
2023-03-25T19:55:36.273Z,29.48
2023-03-25T19:58:07.420Z,30.92
2023-03-25T20:00:35.786Z,35.58
2023-03-25T20:03:04.603Z,29.23
2023-03-25T20:05:34.136Z,26.08
2023-03-25T20:08:02.717Z,30.52
2023-03-25T20:10:32.273Z,35.28
2023-03-25T20:13:02.436Z,32.15
2023-03-25T20:15:30.887Z,35.15
2023-03-25T20:17:59.639Z,36.95
2023-03-25T20:20:28.353Z,29.27
2023-03-25T20:22:57.302Z,38.75
2023-03-25T20:25:25.907Z,43.58
2023-03-25T20:27:55.733Z,45.30
2023-03-25T20:30:28.085Z,52.13
2023-03-25T20:32:58.194Z,47.83
2023-03-25T20:35:27.919Z,41.55
2023-03-25T20:37:56.426Z,40.65
2023-03-25T20:40:33.868Z,46.50
2023-03-25T20:43:14.815Z,47.75
2023-03-25T20:45:45.915Z,44.13
2023-03-25T20:48:14.232Z,41.47
2023-03-25T20:50:43.514Z,41.60
2023-03-25T20:53:12.138Z,30.90
2023-03-25T20:55:40.948Z,35.97
2023-03-25T20:58:11.424Z,31.23
2023-03-25T21:00:39.965Z,32.10
2023-03-25T21:03:10.961Z,22.73
2023-03-25T21:05:41.587Z,26.35
2023-03-25T21:08:10.790Z,14.40
2023-03-25T21:10:39.223Z,17.38
2023-03-25T21:13:08.304Z,13.48
2023-03-25T21:15:39.619Z,22.05
2023-03-25T21:18:11.260Z,17.35
2023-03-25T21:20:39.772Z,13.65
2023-03-25T21:23:09.714Z,16.30
2023-03-25T21:25:38.022Z,7.22
2023-03-25T21:28:07.080Z,11.82
2023-03-25T21:30:35.626Z,15.02
2023-03-25T21:33:04.113Z,12.40
2023-03-25T21:35:35.394Z,10.68
2023-03-25T21:38:07.329Z,13.85
2023-03-25T21:40:39.468Z,12.70
2023-03-25T21:43:08.473Z,9.82
2023-03-25T21:45:36.824Z,15.38
2023-03-25T21:48:09.000Z,13.20
2023-03-25T21:50:38.752Z,13.15
2023-03-25T21:53:13.260Z,15.40
2023-03-25T21:55:41.673Z,15.75
2023-03-25T21:58:19.643Z,13.80
2023-03-25T22:00:48.143Z,21.45
2023-03-25T22:03:18.954Z,20.05
2023-03-25T22:05:48.685Z,24.58
2023-03-25T22:08:17.241Z,21.63
2023-03-25T22:10:45.839Z,30.15
2023-03-25T22:13:14.198Z,22.75
2023-03-25T22:15:42.671Z,26.65
2023-03-25T22:18:10.976Z,34.05
2023-03-25T22:20:40.434Z,27.63
2023-03-25T22:23:12.428Z,28.42
2023-03-25T22:25:41.047Z,23.90
2023-03-25T22:28:09.450Z,29.55
2023-03-25T22:30:39.033Z,38.80
2023-03-25T22:33:07.585Z,37.40
2023-03-25T22:35:38.612Z,34.10
2023-03-25T22:38:07.105Z,25.80
2023-03-25T22:40:37.222Z,33.78
2023-03-25T22:43:05.793Z,43.00
2023-03-25T22:45:34.091Z,36.50
2023-03-25T22:48:02.700Z,35.97
2023-03-25T22:50:31.496Z,36.88
2023-03-25T22:52:59.917Z,41.70
2023-03-25T22:55:28.258Z,41.13
2023-03-25T22:57:58.018Z,50.40
2023-03-25T23:00:27.625Z,45.92
2023-03-25T23:02:56.141Z,47.85
2023-03-25T23:05:24.465Z,47.33
2023-03-25T23:07:52.786Z,49.08
2023-03-25T23:10:21.430Z,50.05
2023-03-25T23:12:50.057Z,52.90
2023-03-25T23:15:19.826Z,45.00
2023-03-25T23:17:48.255Z,52.22
2023-03-25T23:20:17.357Z,72.75
2023-03-25T23:22:45.748Z,58.47
2023-03-25T23:25:14.077Z,60.63
2023-03-25T23:27:45.005Z,64.03
2023-03-25T23:30:14.019Z,56.35
2023-03-25T23:32:43.710Z,56.40
2023-03-25T23:35:12.024Z,51.70
2023-03-25T23:37:41.510Z,50.72
2023-03-25T23:40:12.570Z,54.38
2023-03-25T23:42:41.135Z,61.47
2023-03-25T23:45:11.032Z,50.13
2023-03-25T23:47:39.419Z,65.90
2023-03-25T23:50:14.438Z,67.63
2023-03-25T23:52:42.820Z,61.03
2023-03-25T23:55:12.419Z,61.83
2023-03-25T23:57:40.890Z,75.75
